createdAt,value
2023-04-01T00:00:02.551Z,100.00
2023-04-01T00:02:32.567Z,100.00
2023-04-01T00:04:59.148Z,100.00
2023-04-01T00:07:25.782Z,100.00
2023-04-01T00:09:59.907Z,100.00
2023-04-01T00:12:26.441Z,100.00
2023-04-01T00:14:52.992Z,100.00
2023-04-01T00:17:19.512Z,100.00
2023-04-01T00:19:51.026Z,100.00
2023-04-01T00:22:23.104Z,100.00
2023-04-01T00:24:50.024Z,100.00
2023-04-01T00:27:17.142Z,100.00
2023-04-01T00:29:45.305Z,100.00
2023-04-01T00:32:15.182Z,100.00
2023-04-01T00:34:42.132Z,100.00
2023-04-01T00:37:09.271Z,100.00
2023-04-01T00:39:38.402Z,100.00
2023-04-01T00:42:05.299Z,100.00
2023-04-01T00:44:35.321Z,100.00
2023-04-01T00:47:02.350Z,100.00
2023-04-01T00:49:35.828Z,100.00
2023-04-01T00:52:08.481Z,100.00
2023-04-01T00:54:39.841Z,100.00
2023-04-01T00:57:37.551Z,100.00
2023-04-01T01:00:11.006Z,100.00
2023-04-01T01:02:37.720Z,100.00
2023-04-01T01:05:07.678Z,100.00
2023-04-01T01:07:40.802Z,100.00
2023-04-01T01:10:16.498Z,100.00
2023-04-01T01:12:55.317Z,100.00
2023-04-01T01:15:37.441Z,100.00
2023-04-01T01:18:13.474Z,100.00
2023-04-01T01:20:58.206Z,100.00
2023-04-01T01:23:46.122Z,100.00
2023-04-01T01:26:43.729Z,100.00
2023-04-01T01:29:42.469Z,100.00
2023-04-01T01:32:36.751Z,100.00
2023-04-01T01:35:36.516Z,100.00
2023-04-01T01:38:16.967Z,100.00
2023-04-01T01:40:48.773Z,100.00
2023-04-01T01:43:20.721Z,100.00
2023-04-01T01:45:51.257Z,100.00
2023-04-01T01:48:22.956Z,100.00
2023-04-01T01:50:53.833Z,100.00
2023-04-01T01:53:20.552Z,100.00
2023-04-01T01:55:48.263Z,100.00
2023-04-01T01:58:41.361Z,100.00
2023-04-01T02:01:15.128Z,100.00
2023-04-01T02:03:48.237Z,100.00
2023-04-01T02:06:22.957Z,100.00
2023-04-01T02:08:59.831Z,100.00
2023-04-01T02:11:45.625Z,100.00
2023-04-01T02:14:20.254Z,100.00
2023-04-01T02:17:01.159Z,100.00
2023-04-01T02:19:36.935Z,100.00
2023-04-01T02:22:10.815Z,100.00
2023-04-01T02:24:42.806Z,100.00
2023-04-01T02:27:11.487Z,100.00
2023-04-01T02:29:40.754Z,100.00
2023-04-01T02:32:08.808Z,100.00
2023-04-01T02:34:35.971Z,100.00
2023-04-01T02:37:02.937Z,100.00
2023-04-01T02:39:31.892Z,100.00
2023-04-01T02:42:01.742Z,100.00
2023-04-01T02:44:28.320Z,100.00
2023-04-01T02:46:54.931Z,100.00
2023-04-01T02:49:26.081Z,100.00
2023-04-01T02:51:54.853Z,100.00
2023-04-01T02:54:24.030Z,100.00
2023-04-01T02:56:50.783Z,100.00
2023-04-01T02:59:21.902Z,100.00
2023-04-01T03:01:48.446Z,100.00
2023-04-01T03:04:19.674Z,100.00
2023-04-01T03:06:46.296Z,100.00
2023-04-01T03:09:12.880Z,100.00
2023-04-01T03:11:39.627Z,100.00
2023-04-01T03:14:06.225Z,100.00
2023-04-01T03:16:35.089Z,100.00
2023-04-01T03:19:03.164Z,100.00
2023-04-01T03:21:29.915Z,100.00
2023-04-01T03:23:59.675Z,100.00
2023-04-01T03:26:28.162Z,100.00
2023-04-01T03:28:57.537Z,100.00
2023-04-01T03:31:27.026Z,100.00
2023-04-01T03:33:56.192Z,100.00
2023-04-01T03:36:25.102Z,100.00
2023-04-01T03:38:53.820Z,100.00
2023-04-01T03:41:23.102Z,100.00
2023-04-01T03:43:49.644Z,100.00
2023-04-01T03:46:23.078Z,100.00
2023-04-01T03:48:49.712Z,100.00
2023-04-01T03:51:18.600Z,100.00
2023-04-01T03:53:45.276Z,100.00
2023-04-01T03:56:12.178Z,100.00
2023-04-01T03:58:40.047Z,100.00
2023-04-01T04:01:24.637Z,100.00
2023-04-01T04:03:53.581Z,100.00
2023-04-01T04:06:23.281Z,100.00
2023-04-01T04:08:50.789Z,100.00
2023-04-01T04:11:18.131Z,100.00
2023-04-01T04:13:44.735Z,100.00
2023-04-01T04:16:11.928Z,100.00
2023-04-01T04:18:38.553Z,100.00
2023-04-01T04:21:07.335Z,100.00
2023-04-01T04:23:34.670Z,100.00
2023-04-01T04:26:09.432Z,100.00
2023-04-01T04:28:36.091Z,100.00
2023-04-01T04:31:02.989Z,100.00
2023-04-01T04:33:34.257Z,100.00
2023-04-01T04:36:01.675Z,100.00
2023-04-01T04:38:30.657Z,100.00
2023-04-01T04:41:00.940Z,100.00
2023-04-01T04:43:29.833Z,100.00
2023-04-01T04:45:58.820Z,100.00
2023-04-01T04:48:25.461Z,100.00
2023-04-01T04:50:52.277Z,100.00
2023-04-01T04:53:20.120Z,100.00
2023-04-01T04:55:48.462Z,100.00
2023-04-01T04:58:17.851Z,100.00
2023-04-01T05:00:45.323Z,100.00
2023-04-01T05:03:12.853Z,100.00
2023-04-01T05:05:49.026Z,100.00
2023-04-01T05:08:18.055Z,100.00
2023-04-01T05:10:46.899Z,100.00
2023-04-01T05:13:15.888Z,100.00
2023-04-01T05:15:45.200Z,100.00
2023-04-01T05:18:11.854Z,100.00
2023-04-01T05:20:38.410Z,100.00
2023-04-01T05:23:05.053Z,100.00
2023-04-01T05:25:31.818Z,100.00
2023-04-01T05:27:58.603Z,100.00
2023-04-01T05:30:29.895Z,100.00
2023-04-01T05:32:58.894Z,100.00
2023-04-01T05:35:25.593Z,100.00
2023-04-01T05:37:56.983Z,100.00
2023-04-01T05:40:26.185Z,100.00
2023-04-01T05:42:55.438Z,100.00
2023-04-01T05:45:25.249Z,100.00
2023-04-01T05:47:52.200Z,100.00
2023-04-01T05:50:19.303Z,100.00
2023-04-01T05:52:50.388Z,100.00
2023-04-01T05:55:17.164Z,100.00
2023-04-01T05:57:46.456Z,100.00
2023-04-01T06:00:17.069Z,100.00
2023-04-01T06:02:47.411Z,100.00
2023-04-01T06:05:25.363Z,100.00
2023-04-01T06:08:01.821Z,100.00
2023-04-01T06:11:00.917Z,100.00
2023-04-01T06:13:27.422Z,100.00
2023-04-01T06:16:32.081Z,100.00
2023-04-01T06:19:26.164Z,100.00
2023-04-01T06:22:30.161Z,100.00
2023-04-01T06:25:18.513Z,100.00
2023-04-01T06:28:03.696Z,100.00
2023-04-01T06:30:56.719Z,100.00
2023-04-01T06:33:50.075Z,100.00
2023-04-01T06:36:34.837Z,100.00
2023-04-01T06:39:33.335Z,100.00
2023-04-01T06:42:32.136Z,100.00
2023-04-01T06:45:40.071Z,100.00
2023-04-01T06:48:34.561Z,100.00
2023-04-01T06:51:28.584Z,100.00
2023-04-01T06:54:04.173Z,100.00
2023-04-01T06:56:30.902Z,100.00
2023-04-01T06:59:08.143Z,100.00
2023-04-01T07:01:45.610Z,100.00
2023-04-01T07:04:30.748Z,100.00
2023-04-01T07:07:10.044Z,100.00
2023-04-01T07:09:41.212Z,100.00
2023-04-01T07:12:20.817Z,100.00
2023-04-01T07:14:52.101Z,100.00
2023-04-01T07:17:23.107Z,100.00
2023-04-01T07:20:31.864Z,100.00
2023-04-01T07:23:05.649Z,100.00
2023-04-01T07:25:37.833Z,100.00
2023-04-01T07:28:12.433Z,100.00
2023-04-01T07:31:04.197Z,100.00
2023-04-01T07:33:48.169Z,100.00
2023-04-01T07:36:26.675Z,100.00
2023-04-01T07:38:59.330Z,100.00
2023-04-01T07:41:39.055Z,100.00
2023-04-01T07:44:14.574Z,100.00
2023-04-01T07:47:09.691Z,100.00
2023-04-01T07:49:50.754Z,100.00
2023-04-01T07:52:22.855Z,100.00
2023-04-01T07:54:54.485Z,100.00
2023-04-01T07:57:23.974Z,100.00
2023-04-01T08:00:02.023Z,100.00
2023-04-01T08:03:00.328Z,100.00
2023-04-01T08:05:42.618Z,100.00
2023-04-01T08:08:13.192Z,100.00
2023-04-01T08:10:52.453Z,100.00
2023-04-01T08:13:50.548Z,100.00
2023-04-01T08:16:54.729Z,100.00
2023-04-01T08:19:42.480Z,100.00
2023-04-01T08:22:16.231Z,100.00
2023-04-01T08:24:50.710Z,100.00
2023-04-01T08:27:22.507Z,100.00
2023-04-01T08:30:01.242Z,100.00
2023-04-01T08:32:40.770Z,100.00
2023-04-01T08:35:21.361Z,100.00
2023-04-01T08:37:53.204Z,100.00
2023-04-01T08:40:25.808Z,100.00
2023-04-01T08:43:07.239Z,100.00
2023-04-01T08:45:43.104Z,100.00
2023-04-01T08:48:36.596Z,100.00
2023-04-01T08:51:06.783Z,100.00
2023-04-01T08:53:39.332Z,100.00
2023-04-01T08:56:14.643Z,100.00
2023-04-01T08:58:57.651Z,100.00
2023-04-01T09:01:24.161Z,100.00
2023-04-01T09:04:00.918Z,100.00
2023-04-01T09:07:15.068Z,100.00
2023-04-01T09:09:50.661Z,100.00
2023-04-01T09:12:17.238Z,100.00
2023-04-01T09:14:57.878Z,100.00
2023-04-01T09:17:46.326Z,100.00
2023-04-01T09:20:43.577Z,100.00
2023-04-01T09:23:42.632Z,100.00
2023-04-01T09:26:24.429Z,100.00
2023-04-01T09:29:32.915Z,100.00
2023-04-01T09:31:59.478Z,100.00
2023-04-01T09:34:44.854Z,100.00
2023-04-01T09:37:20.673Z,100.00
2023-04-01T09:39:47.227Z,100.00
2023-04-01T09:42:13.806Z,100.00
2023-04-01T09:45:21.865Z,100.00
2023-04-01T09:48:12.422Z,100.00
2023-04-01T09:51:03.165Z,100.00
2023-04-01T09:53:29.673Z,100.00
2023-04-01T09:56:02.336Z,100.00
2023-04-01T09:59:06.099Z,100.00
2023-04-01T10:01:43.897Z,100.00
2023-04-01T10:04:25.794Z,100.00
2023-04-01T10:07:00.783Z,100.00
2023-04-01T10:09:46.152Z,100.00
2023-04-01T10:12:24.703Z,100.00
2023-04-01T10:15:18.429Z,100.00
2023-04-01T10:18:11.224Z,100.00
2023-04-01T10:20:59.789Z,100.00
2023-04-01T10:23:26.291Z,100.00
2023-04-01T10:26:35.072Z,100.00
2023-04-01T10:29:20.161Z,100.00
2023-04-01T10:32:26.637Z,100.00
2023-04-01T10:35:17.203Z,100.00
2023-04-01T10:38:13.720Z,100.00
2023-04-01T10:41:18.075Z,100.00
2023-04-01T10:44:14.903Z,100.00
2023-04-01T10:47:04.786Z,100.00
2023-04-01T10:50:00.952Z,100.00
2023-04-01T10:53:01.336Z,100.00
2023-04-01T10:56:11.348Z,100.00
2023-04-01T10:59:09.102Z,100.00
2023-04-01T11:01:57.637Z,100.00
2023-04-01T11:05:08.469Z,100.00
2023-04-01T11:08:05.487Z,100.00
2023-04-01T11:11:01.056Z,100.00
2023-04-01T11:13:45.335Z,100.00
2023-04-01T11:16:41.812Z,100.00
2023-04-01T11:19:17.524Z,100.00
2023-04-01T11:21:56.213Z,100.00
2023-04-01T11:24:46.773Z,100.00
2023-04-01T11:27:40.405Z,100.00
2023-04-01T11:30:28.071Z,100.00
2023-04-01T11:33:36.643Z,100.00
2023-04-01T11:36:33.613Z,100.00
2023-04-01T11:39:22.633Z,100.00
2023-04-01T11:42:11.182Z,100.00
2023-04-01T11:45:14.413Z,100.00
2023-04-01T11:47:58.156Z,100.00
2023-04-01T11:50:36.291Z,100.00
2023-04-01T11:53:13.690Z,100.00
2023-04-01T11:55:46.052Z,100.00
2023-04-01T11:58:15.597Z,100.00
2023-04-01T12:01:20.813Z,100.00
2023-04-01T12:04:43.407Z,100.00
2023-04-01T12:07:19.071Z,100.00
2023-04-01T12:10:22.959Z,100.00
2023-04-01T12:13:28.440Z,100.00
2023-04-01T12:16:03.982Z,100.00
2023-04-01T12:18:50.996Z,100.00
2023-04-01T12:21:30.993Z,100.00
2023-04-01T12:24:12.978Z,100.00
2023-04-01T12:27:03.911Z,100.00
2023-04-01T12:29:50.670Z,100.00
2023-04-01T12:32:48.085Z,100.00
2023-04-01T12:35:23.001Z,100.00
2023-04-01T12:38:08.349Z,100.00
2023-04-01T12:40:40.356Z,100.00
2023-04-01T12:43:44.124Z,100.00
2023-04-01T12:46:42.857Z,99.29
2023-04-01T12:49:27.745Z,100.00
2023-04-01T12:52:04.542Z,99.40
2023-04-01T12:54:31.123Z,94.12
2023-04-01T12:57:27.164Z,94.38
2023-04-01T13:00:31.135Z,91.61
2023-04-01T13:03:07.336Z,91.88
2023-04-01T13:06:16.907Z,94.24
2023-04-01T13:08:55.378Z,92.88
2023-04-01T13:11:30.237Z,95.89
2023-04-01T13:14:34.525Z,95.50
2023-04-01T13:17:16.311Z,97.45
2023-04-01T13:20:04.282Z,96.88
2023-04-01T13:22:36.646Z,100.00
2023-04-01T13:25:19.079Z,97.72
2023-04-01T13:27:51.122Z,97.68
2023-04-01T13:30:43.920Z,92.70
2023-04-01T13:33:29.302Z,92.17
2023-04-01T13:36:06.793Z,86.43
2023-04-01T13:39:02.118Z,88.21
2023-04-01T13:42:07.509Z,87.81
2023-04-01T13:44:41.385Z,86.94
2023-04-01T13:47:13.796Z,85.35
2023-04-01T13:50:19.760Z,84.57
2023-04-01T13:52:46.404Z,88.50
2023-04-01T13:55:24.795Z,89.80
2023-04-01T13:58:19.313Z,100.00
2023-04-01T14:01:04.128Z,100.00
2023-04-01T14:04:01.817Z,100.00
2023-04-01T14:06:53.474Z,100.00
2023-04-01T14:09:57.523Z,100.00
2023-04-01T14:12:42.862Z,100.00
2023-04-01T14:15:24.097Z,100.00
2023-04-01T14:18:02.590Z,100.00
2023-04-01T14:20:29.199Z,100.00
2023-04-01T14:23:18.325Z,100.00
2023-04-01T14:26:06.664Z,100.00
2023-04-01T14:29:11.137Z,100.00
2023-04-01T14:31:58.348Z,100.00
2023-04-01T14:34:33.630Z,100.00
2023-04-01T14:37:21.353Z,100.00
2023-04-01T14:40:12.059Z,100.00
2023-04-01T14:43:23.274Z,100.00
2023-04-01T14:45:55.806Z,100.00
2023-04-01T14:48:40.962Z,100.00
2023-04-01T14:51:10.599Z,100.00
2023-04-01T14:53:46.754Z,100.00
2023-04-01T14:56:33.306Z,100.00
2023-04-01T14:59:02.715Z,100.00
2023-04-01T15:02:18.913Z,100.00
2023-04-01T15:04:53.586Z,100.00
2023-04-01T15:07:36.468Z,100.00
2023-04-01T15:10:34.256Z,100.00
2023-04-01T15:13:31.376Z,100.00
2023-04-01T15:16:03.005Z,100.00
2023-04-01T15:19:03.670Z,100.00
2023-04-01T15:21:51.060Z,100.00
2023-04-01T15:24:44.162Z,100.00
2023-04-01T15:27:12.693Z,100.00
2023-04-01T15:30:02.180Z,100.00
2023-04-01T15:32:46.412Z,100.00
2023-04-01T15:35:41.144Z,100.00
2023-04-01T15:38:12.390Z,100.00
2023-04-01T15:40:59.126Z,100.00
2023-04-01T15:43:49.629Z,100.00
2023-04-01T15:46:23.191Z,100.00
2023-04-01T15:49:01.739Z,100.00
2023-04-01T15:51:43.167Z,100.00
2023-04-01T15:54:42.648Z,100.00
2023-04-01T15:57:43.242Z,100.00
2023-04-01T16:00:27.720Z,100.00
2023-04-01T16:03:09.305Z,100.00
2023-04-01T16:05:48.402Z,100.00
2023-04-01T16:08:35.227Z,100.00
2023-04-01T16:11:41.753Z,100.00
2023-04-01T16:14:29.314Z,100.00
2023-04-01T16:17:20.847Z,100.00
2023-04-01T16:20:16.758Z,100.00
2023-04-01T16:23:00.345Z,100.00
2023-04-01T16:26:04.463Z,100.00
2023-04-01T16:28:37.938Z,100.00
2023-04-01T16:31:16.303Z,100.00
2023-04-01T16:34:20.350Z,100.00
2023-04-01T16:36:51.581Z,100.00
2023-04-01T16:39:47.574Z,100.00
2023-04-01T16:42:39.455Z,100.00
2023-04-01T16:45:09.061Z,100.00
2023-04-01T16:47:49.912Z,100.00
2023-04-01T16:50:22.908Z,100.00
2023-04-01T16:53:01.957Z,100.00
2023-04-01T16:55:49.934Z,100.00
2023-04-01T16:58:34.602Z,100.00
2023-04-01T17:01:14.962Z,100.00
2023-04-01T17:03:46.065Z,100.00
2023-04-01T17:06:25.256Z,100.00
2023-04-01T17:09:24.019Z,100.00
2023-04-01T17:12:28.672Z,100.00
2023-04-01T17:15:35.609Z,100.00
2023-04-01T17:18:17.203Z,100.00
2023-04-01T17:21:03.208Z,100.00
2023-04-01T17:23:51.986Z,100.00
2023-04-01T17:26:28.700Z,100.00
2023-04-01T17:29:07.070Z,100.00
2023-04-01T17:31:44.000Z,100.00
2023-04-01T17:34:20.420Z,100.00
2023-04-01T17:36:58.886Z,100.00
2023-04-01T17:39:49.449Z,100.00
2023-04-01T17:42:23.687Z,100.00
2023-04-01T17:45:08.203Z,100.00
2023-04-01T17:48:09.112Z,100.00
2023-04-01T17:51:07.600Z,100.00
2023-04-01T17:53:39.660Z,100.00
2023-04-01T17:56:11.419Z,100.00
2023-04-01T17:58:43.691Z,100.00
2023-04-01T18:01:16.431Z,100.00
2023-04-01T18:03:55.105Z,100.00
2023-04-01T18:06:24.559Z,100.00
2023-04-01T18:09:00.823Z,100.00
2023-04-01T18:11:36.148Z,100.00
2023-04-01T18:14:30.261Z,100.00
2023-04-01T18:17:18.422Z,100.00
2023-04-01T18:20:02.811Z,100.00
2023-04-01T18:22:35.635Z,100.00
2023-04-01T18:25:28.353Z,100.00
2023-04-01T18:28:17.674Z,100.00
2023-04-01T18:30:52.555Z,100.00
2023-04-01T18:33:37.392Z,100.00
2023-04-01T18:36:36.917Z,100.00
2023-04-01T18:39:16.006Z,100.00
2023-04-01T18:42:06.473Z,100.00
2023-04-01T18:44:47.983Z,100.00
2023-04-01T18:47:25.435Z,100.00
2023-04-01T18:50:09.557Z,100.00
2023-04-01T18:52:45.049Z,100.00
2023-04-01T18:55:13.890Z,100.00
2023-04-01T18:57:43.439Z,100.00
2023-04-01T19:00:20.518Z,100.00
2023-04-01T19:02:56.841Z,100.00
2023-04-01T19:05:34.851Z,100.00
2023-04-01T19:08:32.198Z,100.00
2023-04-01T19:11:40.215Z,100.00
2023-04-01T19:14:43.016Z,100.00
2023-04-01T19:17:21.447Z,100.00
2023-04-01T19:20:00.537Z,100.00
2023-04-01T19:22:39.163Z,100.00
2023-04-01T19:25:30.495Z,100.00
2023-04-01T19:28:19.824Z,100.00
2023-04-01T19:30:51.459Z,100.00
2023-04-01T19:33:33.767Z,100.00
2023-04-01T19:36:32.524Z,100.00
2023-04-01T19:39:23.418Z,100.00
2023-04-01T19:41:58.728Z,100.00
2023-04-01T19:44:48.455Z,100.00
2023-04-01T19:47:26.617Z,100.00
2023-04-01T19:50:36.368Z,100.00
2023-04-01T19:53:21.914Z,100.00
2023-04-01T19:56:19.157Z,100.00
2023-04-01T19:58:56.214Z,100.00
2023-04-01T20:01:44.657Z,100.00
2023-04-01T20:04:18.298Z,100.00
2023-04-01T20:07:00.750Z,100.00
2023-04-01T20:09:54.657Z,100.00
2023-04-01T20:12:36.259Z,100.00
2023-04-01T20:15:39.797Z,100.00
2023-04-01T20:18:29.324Z,100.00
2023-04-01T20:21:01.172Z,100.00
2023-04-01T20:23:47.272Z,100.00
2023-04-01T20:26:19.815Z,100.00
2023-04-01T20:29:04.494Z,100.00
2023-04-01T20:31:57.002Z,100.00
2023-04-01T20:34:52.122Z,100.00
2023-04-01T20:37:21.865Z,100.00
2023-04-01T20:40:07.094Z,100.00
2023-04-01T20:42:54.716Z,100.00
2023-04-01T20:45:53.855Z,100.00
2023-04-01T20:48:29.343Z,100.00
2023-04-01T20:51:07.897Z,100.00
2023-04-01T20:54:12.054Z,100.00
2023-04-01T20:56:56.618Z,100.00
2023-04-01T20:59:34.935Z,100.00
2023-04-01T21:02:24.892Z,100.00
2023-04-01T21:05:31.960Z,100.00
2023-04-01T21:08:05.013Z,100.00
2023-04-01T21:10:58.066Z,100.00
2023-04-01T21:13:53.618Z,100.00
2023-04-01T21:16:32.329Z,100.00
2023-04-01T21:19:22.390Z,100.00
2023-04-01T21:22:13.002Z,100.00
2023-04-01T21:24:57.116Z,100.00
2023-04-01T21:27:37.801Z,100.00
2023-04-01T21:30:26.461Z,100.00
2023-04-01T21:33:13.208Z,100.00
2023-04-01T21:36:05.223Z,100.00
2023-04-01T21:38:37.201Z,100.00
2023-04-01T21:41:06.467Z,100.00
2023-04-01T21:43:45.582Z,100.00
2023-04-01T21:46:30.698Z,100.00
2023-04-01T21:49:00.865Z,100.00
2023-04-01T21:51:57.558Z,100.00
2023-04-01T21:54:46.090Z,100.00
2023-04-01T21:57:27.836Z,100.00
2023-04-01T22:00:17.545Z,100.00
2023-04-01T22:02:59.524Z,100.00
2023-04-01T22:05:32.381Z,100.00
2023-04-01T22:08:01.868Z,100.00
2023-04-01T22:10:37.615Z,100.00
2023-04-01T22:13:09.594Z,100.00
2023-04-01T22:16:02.367Z,100.00
2023-04-01T22:18:42.361Z,100.00
2023-04-01T22:21:41.735Z,100.00
2023-04-01T22:24:22.330Z,100.00
2023-04-01T22:26:59.958Z,100.00
2023-04-01T22:29:43.424Z,100.00
2023-04-01T22:32:18.026Z,100.00
2023-04-01T22:34:58.419Z,100.00
2023-04-01T22:37:39.687Z,100.00
2023-04-01T22:40:24.673Z,100.00
2023-04-01T22:43:07.864Z,100.00
2023-04-01T22:46:06.781Z,100.00
2023-04-01T22:48:48.988Z,100.00
2023-04-01T22:51:45.838Z,100.00
2023-04-01T22:54:40.531Z,100.00
2023-04-01T22:57:40.955Z,100.00
2023-04-01T23:00:21.382Z,100.00
2023-04-01T23:02:52.207Z,100.00
2023-04-01T23:05:23.305Z,100.00
2023-04-01T23:08:06.060Z,100.00
2023-04-01T23:10:43.758Z,100.00
2023-04-01T23:13:19.455Z,100.00
2023-04-01T23:15:48.933Z,100.00
2023-04-01T23:18:36.268Z,100.00
2023-04-01T23:21:18.056Z,100.00
2023-04-01T23:24:03.558Z,100.00
2023-04-01T23:27:06.840Z,100.00
2023-04-01T23:29:37.598Z,100.00
2023-04-01T23:32:14.940Z,100.00
2023-04-01T23:34:49.849Z,100.00
2023-04-01T23:37:18.712Z,100.00
2023-04-01T23:39:51.147Z,100.00
2023-04-01T23:42:41.340Z,100.00
2023-04-01T23:45:21.524Z,100.00
2023-04-01T23:47:51.439Z,100.00
2023-04-01T23:50:22.309Z,100.00
2023-04-01T23:53:17.945Z,100.00
2023-04-01T23:55:46.782Z,100.00
2023-04-01T23:58:23.758Z,100.00
